createdAt,value
2022-10-10T00:03:28.279Z,100174.96
2022-10-10T00:08:36.142Z,100172.44
2022-10-10T00:13:44.169Z,100172.70
2022-10-10T00:18:52.359Z,100159.71
2022-10-10T00:24:00.995Z,100155.65
2022-10-10T00:29:08.347Z,100148.89
2022-10-10T00:34:14.140Z,100144.45
2022-10-10T00:39:21.427Z,100145.14
2022-10-10T00:44:30.120Z,100136.71
2022-10-10T00:49:40.962Z,100132.13
2022-10-10T00:54:47.860Z,100123.68
2022-10-10T00:59:54.951Z,100122.23
2022-10-10T01:05:01.785Z,100119.66
2022-10-10T01:10:14.232Z,100114.27
2022-10-10T01:15:30.148Z,100111.89
2022-10-10T01:21:00.895Z,100110.22
2022-10-10T01:26:23.288Z,100109.40
2022-10-10T01:31:35.994Z,100109.33
2022-10-10T01:36:51.679Z,100100.45
2022-10-10T01:42:04.956Z,100099.89
2022-10-10T01:47:13.881Z,100097.02
2022-10-10T01:52:31.699Z,100095.55
2022-10-10T01:57:50.117Z,100094.64
2022-10-10T02:03:04.506Z,100092.42
2022-10-10T02:08:15.955Z,100085.55
2022-10-10T02:13:28.496Z,100081.41
2022-10-10T02:18:37.875Z,100074.09
2022-10-10T02:23:48.607Z,100074.60
2022-10-10T02:28:59.627Z,100065.58
2022-10-10T02:34:12.117Z,100061.67
2022-10-10T02:39:22.841Z,100055.19
2022-10-10T02:44:30.941Z,100059.37
2022-10-10T02:49:38.881Z,100062.94
2022-10-10T02:54:45.997Z,100056.42
2022-10-10T02:59:52.933Z,100057.20
2022-10-10T03:05:00.209Z,100058.85
2022-10-10T03:10:09.175Z,100046.61
2022-10-10T03:15:16.401Z,100052.19
2022-10-10T03:20:23.673Z,100048.65
2022-10-10T03:25:31.043Z,100046.17
2022-10-10T03:30:38.826Z,100044.09
2022-10-10T03:35:46.609Z,100037.49
2022-10-10T03:40:53.627Z,100037.70
2022-10-10T03:46:01.055Z,100028.58
2022-10-10T03:51:08.940Z,100019.08
2022-10-10T03:56:16.859Z,100021.48
2022-10-10T04:01:24.093Z,100011.77
2022-10-10T04:06:31.210Z,100007.97
2022-10-10T04:11:38.754Z,100007.94
2022-10-10T04:16:45.886Z,100008.09
2022-10-10T04:21:52.900Z,100005.17
2022-10-10T04:26:58.582Z,100009.77
2022-10-10T04:32:05.636Z,100013.52
2022-10-10T04:37:13.266Z,100011.84
2022-10-10T04:42:20.462Z,100021.10
2022-10-10T04:47:27.767Z,100015.61
2022-10-10T04:52:34.879Z,100018.91
2022-10-10T04:57:41.980Z,100018.52
2022-10-10T05:02:47.612Z,100012.10
2022-10-10T05:07:55.738Z,100010.02
2022-10-10T05:13:03.351Z,100011.64
2022-10-10T05:18:11.013Z,100011.20
2022-10-10T05:23:18.460Z,100009.39
2022-10-10T05:28:25.704Z,100008.31
2022-10-10T05:33:33.556Z,100010.20
2022-10-10T05:38:41.653Z,100018.81
2022-10-10T05:43:48.812Z,100024.13
2022-10-10T05:48:56.173Z,100025.60
2022-10-10T05:54:03.971Z,100028.14
2022-10-10T05:59:11.107Z,100025.58
2022-10-10T06:04:17.027Z,100025.06
2022-10-10T06:09:24.212Z,100019.04
2022-10-10T06:14:29.693Z,100015.94
2022-10-10T06:19:36.796Z,100013.81
2022-10-10T06:24:42.223Z,100015.09
2022-10-10T06:29:49.252Z,100007.98
2022-10-10T06:34:56.585Z,100016.88
2022-10-10T06:40:04.256Z,100020.95
2022-10-10T06:45:13.034Z,100018.10
2022-10-10T06:50:20.913Z,100015.70
2022-10-10T06:55:28.171Z,100008.30
2022-10-10T07:00:35.654Z,100009.60
2022-10-10T07:05:42.805Z,100010.59
2022-10-10T07:10:48.522Z,100012.23
2022-10-10T07:15:55.692Z,100015.33
2022-10-10T07:21:04.373Z,100012.34
2022-10-10T07:26:21.248Z,100005.67
2022-10-10T07:31:28.280Z,100001.70
2022-10-10T07:36:35.913Z,99999.47
2022-10-10T07:41:42.788Z,100000.75
2022-10-10T07:46:50.299Z,100000.52
2022-10-10T07:52:00.417Z,100002.71
2022-10-10T07:57:09.060Z,100000.32
2022-10-10T08:02:16.363Z,99993.12
2022-10-10T08:07:23.670Z,99988.66
2022-10-10T08:12:29.392Z,99986.01
2022-10-10T08:17:36.695Z,99987.41
2022-10-10T08:22:44.024Z,99979.46
2022-10-10T08:27:50.895Z,99977.27
2022-10-10T08:32:58.303Z,99973.56
2022-10-10T08:38:06.017Z,99967.16
2022-10-10T08:43:22.297Z,99966.85
2022-10-10T08:48:32.599Z,99956.54
2022-10-10T08:53:46.425Z,99949.68
2022-10-10T08:58:59.118Z,99945.02
2022-10-10T09:04:09.418Z,99931.65
2022-10-10T09:09:26.713Z,99927.58
2022-10-10T09:14:41.950Z,99921.58
2022-10-10T09:20:00.101Z,99918.82
2022-10-10T09:25:17.194Z,99914.77
2022-10-10T09:30:25.544Z,99907.36
2022-10-10T09:35:38.653Z,99902.56
2022-10-10T09:40:50.771Z,99896.30
2022-10-10T09:45:58.653Z,99890.70
2022-10-10T09:51:09.113Z,99896.02
2022-10-10T09:56:19.833Z,99891.31
2022-10-10T10:01:29.229Z,99888.03
2022-10-10T10:06:36.777Z,99880.98
2022-10-10T10:11:44.243Z,99876.60
2022-10-10T10:16:51.535Z,99872.88
2022-10-10T10:21:58.430Z,99860.14
2022-10-10T10:27:18.537Z,99853.90
2022-10-10T10:32:43.647Z,99848.69
2022-10-10T10:38:08.667Z,99842.05
2022-10-10T10:43:31.037Z,99838.84
2022-10-10T10:48:45.383Z,99836.33
2022-10-10T10:54:00.207Z,99822.86
2022-10-10T10:59:41.680Z,99810.26
2022-10-10T11:05:24.332Z,99813.54
2022-10-10T11:10:46.237Z,99804.34
2022-10-10T11:16:06.405Z,99796.88
2022-10-10T11:21:20.799Z,99792.55
2022-10-10T11:26:32.019Z,99790.82
2022-10-10T11:31:44.885Z,99776.50
2022-10-10T11:36:53.741Z,99765.16
2022-10-10T11:42:04.795Z,99761.86
2022-10-10T11:47:23.052Z,99756.19
2022-10-10T11:52:35.752Z,99756.90
2022-10-10T11:57:47.946Z,99748.22
2022-10-10T12:02:56.382Z,99734.84
2022-10-10T12:08:13.234Z,99728.67
2022-10-10T12:13:29.972Z,99725.30
2022-10-10T12:18:45.969Z,99716.79
2022-10-10T12:24:05.868Z,99715.73
2022-10-10T12:29:14.061Z,99709.75
2022-10-10T12:34:45.064Z,99701.61
2022-10-10T12:40:24.007Z,99692.29
2022-10-10T12:46:05.594Z,99684.85
2022-10-10T12:51:22.559Z,99680.96
2022-10-10T12:56:47.346Z,99674.13
2022-10-10T13:02:03.574Z,99666.11
2022-10-10T13:07:15.472Z,99654.85
2022-10-10T13:12:28.733Z,99650.86
2022-10-10T13:17:42.707Z,99644.73
2022-10-10T13:22:49.948Z,99642.83
2022-10-10T13:27:57.190Z,99642.14
2022-10-10T13:33:04.561Z,99630.74
2022-10-10T13:38:13.333Z,99626.84
2022-10-10T13:43:21.562Z,99619.14
2022-10-10T13:48:41.165Z,99612.56
2022-10-10T13:53:51.112Z,99612.85
2022-10-10T13:59:06.676Z,99607.91
2022-10-10T14:04:26.651Z,99604.52
2022-10-10T14:09:38.448Z,99595.63
2022-10-10T14:14:48.042Z,99592.92
2022-10-10T14:19:56.547Z,99582.34
2022-10-10T14:25:04.077Z,99576.02
2022-10-10T14:30:17.140Z,99570.35
2022-10-10T14:35:24.262Z,99567.80
2022-10-10T14:40:34.566Z,99558.86
2022-10-10T14:45:42.412Z,99556.38
2022-10-10T14:50:52.052Z,99553.66
2022-10-10T14:55:59.653Z,99547.33
2022-10-10T15:01:07.517Z,99541.89
2022-10-10T15:06:15.079Z,99537.98
2022-10-10T15:11:22.389Z,99537.46
2022-10-10T15:16:30.213Z,99535.65
2022-10-10T15:21:37.397Z,99534.42
2022-10-10T15:26:44.396Z,99535.73
2022-10-10T15:31:51.447Z,99531.11
2022-10-10T15:37:01.091Z,99529.04
2022-10-10T15:42:15.019Z,99528.35
2022-10-10T15:47:24.724Z,99520.96
2022-10-10T15:52:32.234Z,99514.48
2022-10-10T15:57:40.122Z,99513.27
2022-10-10T16:02:47.032Z,99511.70
2022-10-10T16:07:55.777Z,99519.60
2022-10-10T16:13:03.180Z,99518.11
2022-10-10T16:18:10.267Z,99514.27
2022-10-10T16:23:17.264Z,99517.06
2022-10-10T16:28:27.586Z,99516.43
2022-10-10T16:33:36.242Z,99511.08
2022-10-10T16:38:43.800Z,99506.13
2022-10-10T16:43:51.105Z,99504.11
2022-10-10T16:49:00.817Z,99508.23
2022-10-10T16:54:08.925Z,99503.36
2022-10-10T16:59:15.994Z,99499.31
2022-10-10T17:04:22.905Z,99498.83
2022-10-10T17:09:30.296Z,99500.26
2022-10-10T17:14:37.300Z,99500.35
2022-10-10T17:19:44.305Z,99498.61
2022-10-10T17:24:51.657Z,99495.99
2022-10-10T17:29:59.734Z,99488.52
2022-10-10T17:35:08.185Z,99482.60
2022-10-10T17:40:15.771Z,99478.42
2022-10-10T17:45:22.678Z,99477.98
2022-10-10T17:50:28.718Z,99472.53
2022-10-10T17:55:36.669Z,99471.19
2022-10-10T18:00:44.752Z,99472.76
2022-10-10T18:05:51.796Z,99471.13
2022-10-10T18:10:59.514Z,99464.80
2022-10-10T18:16:13.018Z,99463.33
2022-10-10T18:21:22.352Z,99457.87
2022-10-10T18:26:32.774Z,99457.16
2022-10-10T18:31:40.489Z,99455.65
2022-10-10T18:36:47.406Z,99451.09
2022-10-10T18:41:52.616Z,99443.59
2022-10-10T18:46:59.748Z,99444.07
2022-10-10T18:52:08.361Z,99439.71
2022-10-10T18:57:15.669Z,99448.14
2022-10-10T19:02:22.575Z,99444.95
2022-10-10T19:07:27.891Z,99452.98
2022-10-10T19:12:35.227Z,99455.84
2022-10-10T19:17:42.295Z,99459.65
2022-10-10T19:22:49.396Z,99455.47
2022-10-10T19:27:55.118Z,99452.83
2022-10-10T19:33:02.577Z,99455.77
2022-10-10T19:38:11.299Z,99453.10
2022-10-10T19:43:18.849Z,99460.55
2022-10-10T19:48:26.139Z,99461.83
2022-10-10T19:53:34.158Z,99463.48
2022-10-10T19:58:42.087Z,99467.42
2022-10-10T20:03:49.803Z,99463.07
2022-10-10T20:08:57.081Z,99466.10
2022-10-10T20:14:04.309Z,99462.95
2022-10-10T20:19:11.235Z,99462.88
2022-10-10T20:24:18.518Z,99461.25
2022-10-10T20:29:25.527Z,99463.20
2022-10-10T20:34:32.598Z,99469.29
2022-10-10T20:39:39.762Z,99458.41
2022-10-10T20:44:46.768Z,99473.44
2022-10-10T20:49:54.038Z,99471.02
2022-10-10T20:55:01.237Z,99478.64
2022-10-10T21:00:11.512Z,99477.43
2022-10-10T21:05:18.864Z,99474.04
2022-10-10T21:10:26.134Z,99476.45
2022-10-10T21:15:34.232Z,99473.98
2022-10-10T21:20:41.476Z,99470.46
2022-10-10T21:25:48.866Z,99470.55
2022-10-10T21:30:56.252Z,99470.77
2022-10-10T21:36:03.601Z,99476.30
2022-10-10T21:41:13.905Z,99476.27
2022-10-10T21:46:23.539Z,99479.83
2022-10-10T21:51:31.210Z,99476.20
2022-10-10T21:56:38.857Z,99475.90
2022-10-10T22:01:45.804Z,99479.36
2022-10-10T22:06:52.834Z,99475.80
2022-10-10T22:11:58.544Z,99479.01
2022-10-10T22:17:05.755Z,99481.43
2022-10-10T22:22:12.979Z,99482.48
2022-10-10T22:27:18.437Z,99478.90
2022-10-10T22:32:25.608Z,99476.70
2022-10-10T22:37:33.423Z,99477.09
2022-10-10T22:42:40.756Z,99476.09
2022-10-10T22:47:47.931Z,99476.36
2022-10-10T22:52:53.383Z,99480.13
2022-10-10T22:58:00.823Z,99482.54
2022-10-10T23:03:08.294Z,99484.33
2022-10-10T23:08:15.620Z,99490.93
2022-10-10T23:13:22.932Z,99494.50
2022-10-10T23:18:30.750Z,99496.28
2022-10-10T23:23:38.139Z,99497.39
2022-10-10T23:28:46.022Z,99496.24
2022-10-10T23:33:53.490Z,99499.04
2022-10-10T23:39:01.145Z,99494.60
2022-10-10T23:44:08.813Z,99494.25
2022-10-10T23:49:15.781Z,99498.77
2022-10-10T23:54:22.831Z,99495.98
2022-10-10T23:59:28.310Z,99501.05
